Agua Clara, Brazil
Current Conditions -  °F | °C
As of 12:00 PM on Monday 22 Dec 2014 (Local Time) from SBCG Reporting Station
Light Rain Light Rain  
Wind Chill: 70°   Ceiling: 200
Heat Index: 70°   Visibility: 4mi
Dew Point: 70°   Wind: 20mph
Humidity: 100%   Direction: 290°WNW
Pressure: NA   Gusts: NA
Location:  20.45°S, 52.88°W
Report Text: SBCG 221500Z 29017KT 6000 -RA BKN002 SCT023 FEW040TCU 21/21 Q1014
Loading
Personal Weather Stations






























Interactive Weather Map New forecast layout! Learn more

10-Day Weather Forecast

Advertisements
Track Severe Weather on mobile